sensor_id;sensor_type;location;lat;lon;timestamp;pressure;altitude;pressure_sealevel;temperature;humidity
46682;BME280;34101;53.430;-2.224;2023-06-22T00:02:26;101439.17;;;20.92;55.48
46682;BME280;34101;53.430;-2.224;2023-06-22T00:04:54;101437.45;;;20.86;55.70
46682;BME280;34101;53.430;-2.224;2023-06-22T00:07:21;101429.74;;;20.79;55.95
46682;BME280;34101;53.430;-2.224;2023-06-22T00:09:49;101427.26;;;20.71;56.04
46682;BME280;34101;53.430;-2.224;2023-06-22T00:12:16;101427.75;;;20.63;56.42
46682;BME280;34101;53.430;-2.224;2023-06-22T00:14:44;101427.80;;;20.59;56.51
46682;BME280;34101;53.430;-2.224;2023-06-22T00:17:12;101427.85;;;20.53;56.69
46682;BME280;34101;53.430;-2.224;2023-06-22T00:19:40;101429.56;;;20.48;56.72
46682;BME280;34101;53.430;-2.224;2023-06-22T00:22:08;101430.36;;;20.44;56.95
46682;BME280;34101;53.430;-2.224;2023-06-22T00:24:36;101426.82;;;20.40;57.00
46682;BME280;34101;53.430;-2.224;2023-06-22T00:27:04;101426.49;;;20.36;57.02
46682;BME280;34101;53.430;-2.224;2023-06-22T00:29:33;101425.65;;;20.33;57.18
46682;BME280;34101;53.430;-2.224;2023-06-22T00:32:01;101428.59;;;20.31;57.27
46682;BME280;34101;53.430;-2.224;2023-06-22T00:34:28;101428.78;;;20.28;57.45
46682;BME280;34101;53.430;-2.224;2023-06-22T00:36:56;101425.53;;;20.25;57.62
46682;BME280;34101;53.430;-2.224;2023-06-22T00:39:23;101424.26;;;20.21;57.82
46682;BME280;34101;53.430;-2.224;2023-06-22T00:41:51;101418.27;;;20.19;57.91
46682;BME280;34101;53.430;-2.224;2023-06-22T00:44:19;101415.94;;;20.16;58.11
46682;BME280;34101;53.430;-2.224;2023-06-22T00:46:47;101413.88;;;20.14;58.08
46682;BME280;34101;53.430;-2.224;2023-06-22T00:49:14;101415.27;;;20.11;58.23
46682;BME280;34101;53.430;-2.224;2023-06-22T00:51:42;101419.54;;;20.07;58.32
46682;BME280;34101;53.430;-2.224;2023-06-22T00:54:10;101418.57;;;20.03;58.42
46682;BME280;34101;53.430;-2.224;2023-06-22T00:56:37;101421.26;;;19.99;58.59
46682;BME280;34101;53.430;-2.224;2023-06-22T00:59:05;101426.11;;;19.95;58.86
46682;BME280;34101;53.430;-2.224;2023-06-22T01:01:33;101430.54;;;19.93;58.79
46682;BME280;34101;53.430;-2.224;2023-06-22T01:04:01;101433.97;;;19.90;58.83
46682;BME280;34101;53.430;-2.224;2023-06-22T01:06:35;101433.52;;;19.86;58.99
46682;BME280;34101;53.430;-2.224;2023-06-22T01:09:10;101433.44;;;19.86;59.08
46682;BME280;34101;53.430;-2.224;2023-06-22T01:11:42;101432.68;;;19.85;58.78
46682;BME280;34101;53.430;-2.224;2023-06-22T01:14:15;101431.28;;;19.82;58.85
46682;BME280;34101;53.430;-2.224;2023-06-22T01:16:48;101436.01;;;19.82;58.91
46682;BME280;34101;53.430;-2.224;2023-06-22T01:19:38;101435.73;;;19.78;59.23
46682;BME280;34101;53.430;-2.224;2023-06-22T01:22:07;101433.37;;;19.75;59.28
46682;BME280;34101;53.430;-2.224;2023-06-22T01:24:45;101434.32;;;19.76;59.42
46682;BME280;34101;53.430;-2.224;2023-06-22T01:27:26;101437.42;;;19.73;59.66
46682;BME280;34101;53.430;-2.224;2023-06-22T01:29:57;101440.60;;;19.72;59.81
46682;BME280;34101;53.430;-2.224;2023-06-22T01:32:27;101442.49;;;19.70;60.28
46682;BME280;34101;53.430;-2.224;2023-06-22T01:34:56;101446.21;;;19.68;60.56
46682;BME280;34101;53.430;-2.224;2023-06-22T01:37:25;101450.10;;;19.66;60.84
46682;BME280;34101;53.430;-2.224;2023-06-22T01:39:53;101450.97;;;19.62;61.01
46682;BME280;34101;53.430;-2.224;2023-06-22T01:42:23;101451.02;;;19.56;61.16
46682;BME280;34101;53.430;-2.224;2023-06-22T01:44:52;101455.06;;;19.55;61.47
46682;BME280;34101;53.430;-2.224;2023-06-22T01:47:21;101456.43;;;19.51;61.70
46682;BME280;34101;53.430;-2.224;2023-06-22T01:49:49;101463.36;;;19.53;61.77
46682;BME280;34101;53.430;-2.224;2023-06-22T01:52:16;101463.40;;;19.57;61.73
46682;BME280;34101;53.430;-2.224;2023-06-22T01:54:45;101462.53;;;19.57;61.80
46682;BME280;34101;53.430;-2.224;2023-06-22T01:57:12;101461.06;;;19.55;61.88
46682;BME280;34101;53.430;-2.224;2023-06-22T01:59:46;101459.77;;;19.49;62.12
46682;BME280;34101;53.430;-2.224;2023-06-22T02:02:18;101462.65;;;19.49;62.09
46682;BME280;34101;53.430;-2.224;2023-06-22T02:04:48;101463.16;;;19.46;62.21
46682;BME280;34101;53.430;-2.224;2023-06-22T02:07:22;101464.16;;;19.45;62.39
46682;BME280;34101;53.430;-2.224;2023-06-22T02:09:53;101462.81;;;19.42;62.30
46682;BME280;34101;53.430;-2.224;2023-06-22T02:12:25;101462.80;;;19.35;62.39
46682;BME280;34101;53.430;-2.224;2023-06-22T02:14:53;101465.99;;;19.29;62.57
46682;BME280;34101;53.430;-2.224;2023-06-22T02:17:21;101468.98;;;19.26;62.51
46682;BME280;34101;53.430;-2.224;2023-06-22T02:19:50;101472.86;;;19.22;62.58
46682;BME280;34101;53.430;-2.224;2023-06-22T02:22:19;101476.43;;;19.16;62.45
46682;BME280;34101;53.430;-2.224;2023-06-22T02:24:46;101476.24;;;19.08;62.73
46682;BME280;34101;53.430;-2.224;2023-06-22T02:27:14;101472.92;;;19.05;62.81
46682;BME280;34101;53.430;-2.224;2023-06-22T02:29:41;101475.33;;;19.00;62.80
46682;BME280;34101;53.430;-2.224;2023-06-22T02:32:10;101476.97;;;18.95;63.01
46682;BME280;34101;53.430;-2.224;2023-06-22T02:34:37;101478.06;;;18.93;62.96
46682;BME280;34101;53.430;-2.224;2023-06-22T02:37:04;101481.42;;;18.94;63.33
46682;BME280;34101;53.430;-2.224;2023-06-22T02:39:32;101483.56;;;18.92;63.54
46682;BME280;34101;53.430;-2.224;2023-06-22T02:42:00;101482.45;;;18.93;63.39
46682;BME280;34101;53.430;-2.224;2023-06-22T02:44:28;101484.31;;;18.89;63.61
46682;BME280;34101;53.430;-2.224;2023-06-22T02:46:55;101484.65;;;18.84;63.79
46682;BME280;34101;53.430;-2.224;2023-06-22T02:49:23;101486.59;;;18.81;63.88
46682;BME280;34101;53.430;-2.224;2023-06-22T02:51:51;101489.65;;;18.74;64.12
46682;BME280;34101;53.430;-2.224;2023-06-22T02:54:19;101489.31;;;18.70;64.20
46682;BME280;34101;53.430;-2.224;2023-06-22T02:56:47;101492.83;;;18.64;64.34
46682;BME280;34101;53.430;-2.224;2023-06-22T02:59:15;101492.55;;;18.57;64.66
46682;BME280;34101;53.430;-2.224;2023-06-22T03:01:42;101490.65;;;18.54;64.92
46682;BME280;34101;53.430;-2.224;2023-06-22T03:04:10;101490.57;;;18.51;65.01
46682;BME280;34101;53.430;-2.224;2023-06-22T03:06:37;101492.99;;;18.48;65.21
46682;BME280;34101;53.430;-2.224;2023-06-22T03:09:05;101493.43;;;18.48;65.25
46682;BME280;34101;53.430;-2.224;2023-06-22T03:11:33;101492.81;;;18.45;65.37
46682;BME280;34101;53.430;-2.224;2023-06-22T03:14:02;101493.01;;;18.40;65.57
46682;BME280;34101;53.430;-2.224;2023-06-22T03:16:29;101495.79;;;18.35;65.85
46682;BME280;34101;53.430;-2.224;2023-06-22T03:18:57;101496.94;;;18.33;65.86
46682;BME280;34101;53.430;-2.224;2023-06-22T03:21:26;101498.56;;;18.31;65.95
46682;BME280;34101;53.430;-2.224;2023-06-22T03:23:54;101496.18;;;18.27;66.07
46682;BME280;34101;53.430;-2.224;2023-06-22T03:26:22;101498.28;;;18.25;66.29
46682;BME280;34101;53.430;-2.224;2023-06-22T03:28:49;101502.99;;;18.26;66.24
46682;BME280;34101;53.430;-2.224;2023-06-22T03:31:17;101503.16;;;18.22;66.24
46682;BME280;34101;53.430;-2.224;2023-06-22T03:33:45;101501.99;;;18.17;66.45
46682;BME280;34101;53.430;-2.224;2023-06-22T03:36:12;101506.15;;;18.14;66.40
46682;BME280;34101;53.430;-2.224;2023-06-22T03:38:40;101506.27;;;18.14;66.57
46682;BME280;34101;53.430;-2.224;2023-06-22T03:41:07;101508.65;;;18.15;66.62
46682;BME280;34101;53.430;-2.224;2023-06-22T03:43:35;101507.87;;;18.14;66.57
46682;BME280;34101;53.430;-2.224;2023-06-22T03:46:02;101513.15;;;18.10;66.61
46682;BME280;34101;53.430;-2.224;2023-06-22T03:48:30;101518.06;;;18.07;66.87
46682;BME280;34101;53.430;-2.224;2023-06-22T03:50:59;101515.65;;;18.07;66.97
46682;BME280;34101;53.430;-2.224;2023-06-22T03:53:26;101516.81;;;18.04;66.81
46682;BME280;34101;53.430;-2.224;2023-06-22T03:55:54;101517.72;;;18.02;67.10
46682;BME280;34101;53.430;-2.224;2023-06-22T03:58:22;101515.86;;;18.05;67.07
46682;BME280;34101;53.430;-2.224;2023-06-22T04:00:51;101513.25;;;18.05;66.96
46682;BME280;34101;53.430;-2.224;2023-06-22T04:03:20;101509.45;;;18.00;67.12
46682;BME280;34101;53.430;-2.224;2023-06-22T04:05:48;101509.17;;;17.91;67.60
46682;BME280;34101;53.430;-2.224;2023-06-22T04:08:16;101508.74;;;17.88;67.77
46682;BME280;34101;53.430;-2.224;2023-06-22T04:10:43;101508.70;;;17.86;67.80
46682;BME280;34101;53.430;-2.224;2023-06-22T04:13:10;101506.29;;;17.87;67.73
46682;BME280;34101;53.430;-2.224;2023-06-22T04:15:38;101504.56;;;17.83;67.85
46682;BME280;34101;53.430;-2.224;2023-06-22T04:18:05;101503.49;;;17.80;68.05
46682;BME280;34101;53.430;-2.224;2023-06-22T04:20:33;101503.50;;;17.86;68.17
46682;BME280;34101;53.430;-2.224;2023-06-22T04:23:00;101506.92;;;17.88;68.02
46682;BME280;34101;53.430;-2.224;2023-06-22T04:25:27;101506.48;;;17.89;67.88
46682;BME280;34101;53.430;-2.224;2023-06-22T04:27:55;101505.50;;;17.88;67.88
46682;BME280;34101;53.430;-2.224;2023-06-22T04:30:23;101506.16;;;17.85;67.96
46682;BME280;34101;53.430;-2.224;2023-06-22T04:32:50;101509.58;;;17.87;68.14
46682;BME280;34101;53.430;-2.224;2023-06-22T04:35:18;101512.63;;;17.85;67.98
46682;BME280;34101;53.430;-2.224;2023-06-22T04:37:45;101510.47;;;17.83;68.23
46682;BME280;34101;53.430;-2.224;2023-06-22T04:40:13;101510.80;;;17.81;68.19
46682;BME280;34101;53.430;-2.224;2023-06-22T04:42:40;101512.66;;;17.79;68.24
46682;BME280;34101;53.430;-2.224;2023-06-22T04:45:08;101516.16;;;17.79;68.26
46682;BME280;34101;53.430;-2.224;2023-06-22T04:47:36;101517.14;;;17.85;68.21
46682;BME280;34101;53.430;-2.224;2023-06-22T04:50:04;101521.31;;;17.89;68.18
46682;BME280;34101;53.430;-2.224;2023-06-22T04:52:32;101521.82;;;17.94;68.21
46682;BME280;34101;53.430;-2.224;2023-06-22T04:55:00;101517.30;;;17.98;68.07
46682;BME280;34101;53.430;-2.224;2023-06-22T04:57:27;101512.63;;;17.99;67.90
46682;BME280;34101;53.430;-2.224;2023-06-22T04:59:55;101507.39;;;18.01;67.76
46682;BME280;34101;53.430;-2.224;2023-06-22T05:02:23;101507.94;;;18.06;67.62
46682;BME280;34101;53.430;-2.224;2023-06-22T05:04:50;101510.27;;;18.10;67.66
46682;BME280;34101;53.430;-2.224;2023-06-22T05:07:18;101512.16;;;18.14;67.72
46682;BME280;34101;53.430;-2.224;2023-06-22T05:09:46;101510.66;;;18.15;67.61
46682;BME280;34101;53.430;-2.224;2023-06-22T05:12:13;101517.91;;;18.20;67.57
46682;BME280;34101;53.430;-2.224;2023-06-22T05:14:41;101516.22;;;18.23;67.43
46682;BME280;34101;53.430;-2.224;2023-06-22T05:17:08;101515.07;;;18.25;67.24
46682;BME280;34101;53.430;-2.224;2023-06-22T05:19:35;101515.45;;;18.31;67.24
46682;BME280;34101;53.430;-2.224;2023-06-22T05:22:03;101518.07;;;18.35;67.13
46682;BME280;34101;53.430;-2.224;2023-06-22T05:24:31;101516.44;;;18.36;67.28
46682;BME280;34101;53.430;-2.224;2023-06-22T05:26:59;101513.23;;;18.41;67.28
46682;BME280;34101;53.430;-2.224;2023-06-22T05:29:26;101512.42;;;18.48;67.04
46682;BME280;34101;53.430;-2.224;2023-06-22T05:31:54;101512.95;;;18.56;66.75
46682;BME280;34101;53.430;-2.224;2023-06-22T05:34:22;101517.41;;;18.64;66.56
46682;BME280;34101;53.430;-2.224;2023-06-22T05:36:49;101518.01;;;18.70;66.03
46682;BME280;34101;53.430;-2.224;2023-06-22T05:39:17;101518.26;;;18.74;65.86
46682;BME280;34101;53.430;-2.224;2023-06-22T05:41:45;101519.48;;;18.80;65.61
46682;BME280;34101;53.430;-2.224;2023-06-22T05:44:13;101521.69;;;18.88;65.43
46682;BME280;34101;53.430;-2.224;2023-06-22T05:46:42;101522.40;;;18.93;65.15
46682;BME280;34101;53.430;-2.224;2023-06-22T05:49:10;101525.01;;;18.97;64.80
46682;BME280;34101;53.430;-2.224;2023-06-22T05:51:37;101525.23;;;18.98;64.75
46682;BME280;34101;53.430;-2.224;2023-06-22T05:54:05;101528.63;;;19.02;64.87
46682;BME280;34101;53.430;-2.224;2023-06-22T05:56:33;101526.23;;;19.09;64.89
46682;BME280;34101;53.430;-2.224;2023-06-22T05:59:06;101526.17;;;19.16;64.77
46682;BME280;34101;53.430;-2.224;2023-06-22T06:01:34;101524.64;;;19.21;64.40
46682;BME280;34101;53.430;-2.224;2023-06-22T06:04:02;101525.76;;;19.24;64.50
46682;BME280;34101;53.430;-2.224;2023-06-22T06:06:30;101524.00;;;19.31;64.28
46682;BME280;34101;53.430;-2.224;2023-06-22T06:08:57;101528.39;;;19.41;63.96
46682;BME280;34101;53.430;-2.224;2023-06-22T06:11:25;101529.31;;;19.45;63.93
46682;BME280;34101;53.430;-2.224;2023-06-22T06:13:57;101532.22;;;19.57;63.62
46682;BME280;34101;53.430;-2.224;2023-06-22T06:16:25;101528.45;;;19.72;63.06
46682;BME280;34101;53.430;-2.224;2023-06-22T06:18:52;101527.54;;;19.90;62.55
46682;BME280;34101;53.430;-2.224;2023-06-22T06:21:20;101523.06;;;20.06;62.26
46682;BME280;34101;53.430;-2.224;2023-06-22T06:23:48;101522.56;;;20.22;61.73
46682;BME280;34101;53.430;-2.224;2023-06-22T06:26:16;101525.52;;;20.22;61.32
46682;BME280;34101;53.430;-2.224;2023-06-22T06:28:43;101524.37;;;20.36;61.66
46682;BME280;34101;53.430;-2.224;2023-06-22T06:31:10;101522.96;;;20.52;60.95
46682;BME280;34101;53.430;-2.224;2023-06-22T06:33:38;101521.72;;;20.60;60.69
46682;BME280;34101;53.430;-2.224;2023-06-22T06:36:06;101523.83;;;20.77;60.41
46682;BME280;34101;53.430;-2.224;2023-06-22T06:38:33;101523.91;;;20.91;59.82
46682;BME280;34101;53.430;-2.224;2023-06-22T06:41:01;101521.94;;;20.99;59.72
46682;BME280;34101;53.430;-2.224;2023-06-22T06:43:28;101520.83;;;21.12;59.35
46682;BME280;34101;53.430;-2.224;2023-06-22T06:45:56;101525.45;;;21.26;59.29
46682;BME280;34101;53.430;-2.224;2023-06-22T06:48:23;101527.63;;;21.37;59.01
46682;BME280;34101;53.430;-2.224;2023-06-22T06:50:50;101531.42;;;21.44;58.57
46682;BME280;34101;53.430;-2.224;2023-06-22T06:53:19;101533.42;;;21.41;58.83
46682;BME280;34101;53.430;-2.224;2023-06-22T06:55:47;101536.30;;;21.51;58.51
46682;BME280;34101;53.430;-2.224;2023-06-22T06:58:14;101538.69;;;21.63;57.98
46682;BME280;34101;53.430;-2.224;2023-06-22T07:00:41;101544.54;;;21.62;58.18
46682;BME280;34101;53.430;-2.224;2023-06-22T07:03:10;101548.53;;;21.87;57.44
46682;BME280;34101;53.430;-2.224;2023-06-22T07:05:37;101550.12;;;21.94;56.65
46682;BME280;34101;53.430;-2.224;2023-06-22T07:08:04;101551.12;;;21.43;57.47
46682;BME280;34101;53.430;-2.224;2023-06-22T07:10:32;101549.40;;;21.63;57.65
46682;BME280;34101;53.430;-2.224;2023-06-22T07:12:59;101550.25;;;21.87;57.05
46682;BME280;34101;53.430;-2.224;2023-06-22T07:15:27;101549.42;;;21.87;56.90
46682;BME280;34101;53.430;-2.224;2023-06-22T07:17:54;101553.14;;;21.94;56.90
46682;BME280;34101;53.430;-2.224;2023-06-22T07:20:22;101552.53;;;22.16;56.34
46682;BME280;34101;53.430;-2.224;2023-06-22T07:22:49;101557.97;;;22.31;55.82
46682;BME280;34101;53.430;-2.224;2023-06-22T07:25:17;101558.11;;;22.47;55.32
46682;BME280;34101;53.430;-2.224;2023-06-22T07:27:59;101555.50;;;22.38;55.45
46682;BME280;34101;53.430;-2.224;2023-06-22T07:30:27;101556.90;;;22.28;56.08
46682;BME280;34101;53.430;-2.224;2023-06-22T07:32:56;101561.64;;;22.32;55.75
46682;BME280;34101;53.430;-2.224;2023-06-22T07:35:23;101565.40;;;22.38;55.81
46682;BME280;34101;53.430;-2.224;2023-06-22T07:37:51;101563.75;;;22.26;56.30
46682;BME280;34101;53.430;-2.224;2023-06-22T07:40:19;101564.39;;;22.41;55.83
46682;BME280;34101;53.430;-2.224;2023-06-22T07:42:47;101564.36;;;22.49;55.41
46682;BME280;34101;53.430;-2.224;2023-06-22T07:45:14;101560.11;;;22.69;54.82
46682;BME280;34101;53.430;-2.224;2023-06-22T07:47:41;101565.89;;;22.58;55.40
46682;BME280;34101;53.430;-2.224;2023-06-22T07:50:10;101563.82;;;22.89;54.68
46682;BME280;34101;53.430;-2.224;2023-06-22T07:52:37;101560.24;;;23.10;53.34
46682;BME280;34101;53.430;-2.224;2023-06-22T07:55:05;101560.86;;;23.10;52.87
46682;BME280;34101;53.430;-2.224;2023-06-22T07:57:33;101562.58;;;23.23;53.42
46682;BME280;34101;53.430;-2.224;2023-06-22T08:00:06;101566.11;;;23.49;52.52
46682;BME280;34101;53.430;-2.224;2023-06-22T08:02:34;101565.75;;;23.76;51.50
46682;BME280;34101;53.430;-2.224;2023-06-22T08:05:02;101568.88;;;23.83;51.10
46682;BME280;34101;53.430;-2.224;2023-06-22T08:07:33;101565.35;;;23.93;50.87
46682;BME280;34101;53.430;-2.224;2023-06-22T08:10:01;101562.59;;;24.07;50.21
46682;BME280;34101;53.430;-2.224;2023-06-22T08:12:28;101560.30;;;24.24;50.14
46682;BME280;34101;53.430;-2.224;2023-06-22T08:14:56;101564.63;;;24.33;49.91
46682;BME280;34101;53.430;-2.224;2023-06-22T08:17:24;101570.75;;;23.75;51.42
46682;BME280;34101;53.430;-2.224;2023-06-22T08:19:51;101574.47;;;23.83;50.96
46682;BME280;34101;53.430;-2.224;2023-06-22T08:22:18;101574.80;;;23.72;50.80
46682;BME280;34101;53.430;-2.224;2023-06-22T08:24:46;101571.12;;;23.15;52.88
46682;BME280;34101;53.430;-2.224;2023-06-22T08:27:13;101577.16;;;23.50;52.57
46682;BME280;34101;53.430;-2.224;2023-06-22T08:29:41;101575.42;;;23.68;51.54
46682;BME280;34101;53.430;-2.224;2023-06-22T08:32:09;101575.51;;;23.66;51.90
46682;BME280;34101;53.430;-2.224;2023-06-22T08:34:37;101572.44;;;23.87;50.92
46682;BME280;34101;53.430;-2.224;2023-06-22T08:37:05;101569.10;;;24.38;49.66
46682;BME280;34101;53.430;-2.224;2023-06-22T08:39:32;101568.49;;;24.71;48.99
46682;BME280;34101;53.430;-2.224;2023-06-22T08:42:00;101566.90;;;25.45;48.00
46682;BME280;34101;53.430;-2.224;2023-06-22T08:44:28;101568.61;;;25.80;47.04
46682;BME280;34101;53.430;-2.224;2023-06-22T08:46:56;101566.69;;;26.56;44.40
46682;BME280;34101;53.430;-2.224;2023-06-22T08:49:23;101566.60;;;26.90;43.82
46682;BME280;34101;53.430;-2.224;2023-06-22T08:51:56;101568.22;;;26.08;45.54
46682;BME280;34101;53.430;-2.224;2023-06-22T08:54:23;101564.25;;;26.08;44.67
46682;BME280;34101;53.430;-2.224;2023-06-22T08:56:51;101563.01;;;26.05;45.76
46682;BME280;34101;53.430;-2.224;2023-06-22T08:59:19;101563.97;;;25.94;46.17
46682;BME280;34101;53.430;-2.224;2023-06-22T09:01:46;101565.55;;;25.64;46.87
46682;BME280;34101;53.430;-2.224;2023-06-22T09:04:14;101569.67;;;25.39;47.45
46682;BME280;34101;53.430;-2.224;2023-06-22T09:06:42;101568.98;;;25.47;46.92
46682;BME280;34101;53.430;-2.224;2023-06-22T09:09:09;101570.18;;;25.25;47.29
46682;BME280;34101;53.430;-2.224;2023-06-22T09:11:37;101570.92;;;25.90;45.41
46682;BME280;34101;53.430;-2.224;2023-06-22T09:14:04;101570.90;;;24.98;48.59
46682;BME280;34101;53.430;-2.224;2023-06-22T09:16:32;101569.49;;;25.89;46.37
46682;BME280;34101;53.430;-2.224;2023-06-22T09:18:59;101568.13;;;26.69;44.10
46682;BME280;34101;53.430;-2.224;2023-06-22T09:21:27;101566.80;;;27.47;42.95
46682;BME280;34101;53.430;-2.224;2023-06-22T09:23:59;101567.06;;;27.99;41.40
46682;BME280;34101;53.430;-2.224;2023-06-22T09:26:27;101568.14;;;28.18;40.64
46682;BME280;34101;53.430;-2.224;2023-06-22T09:28:54;101562.09;;;28.75;40.51
46682;BME280;34101;53.430;-2.224;2023-06-22T09:31:22;101558.52;;;29.41;38.62
46682;BME280;34101;53.430;-2.224;2023-06-22T09:33:50;101558.44;;;29.34;38.41
46682;BME280;34101;53.430;-2.224;2023-06-22T09:36:18;101561.23;;;29.26;38.59
46682;BME280;34101;53.430;-2.224;2023-06-22T09:38:45;101563.75;;;28.83;39.39
46682;BME280;34101;53.430;-2.224;2023-06-22T09:41:13;101566.65;;;28.19;40.75
46682;BME280;34101;53.430;-2.224;2023-06-22T09:43:40;101565.10;;;28.81;38.26
46682;BME280;34101;53.430;-2.224;2023-06-22T09:46:08;101563.99;;;29.48;37.86
46682;BME280;34101;53.430;-2.224;2023-06-22T09:48:36;101561.19;;;30.23;36.87
46682;BME280;34101;53.430;-2.224;2023-06-22T09:51:08;101562.92;;;30.48;35.85
46682;BME280;34101;53.430;-2.224;2023-06-22T09:53:36;101560.74;;;30.10;37.11
46682;BME280;34101;53.430;-2.224;2023-06-22T09:56:03;101561.74;;;30.65;35.14
46682;BME280;34101;53.430;-2.224;2023-06-22T09:58:31;101560.53;;;30.05;35.31
46682;BME280;34101;53.430;-2.224;2023-06-22T10:00:58;101564.08;;;30.95;34.13
46682;BME280;34101;53.430;-2.224;2023-06-22T10:03:25;101559.37;;;31.56;33.79
46682;BME280;34101;53.430;-2.224;2023-06-22T10:05:53;101557.33;;;32.11;29.38
46682;BME280;34101;53.430;-2.224;2023-06-22T10:08:21;101555.43;;;32.56;30.24
46682;BME280;34101;53.430;-2.224;2023-06-22T10:10:49;101555.03;;;33.23;28.47
46682;BME280;34101;53.430;-2.224;2023-06-22T10:13:16;101551.94;;;32.45;28.88
46682;BME280;34101;53.430;-2.224;2023-06-22T10:15:44;101556.64;;;30.73;31.10
46682;BME280;34101;53.430;-2.224;2023-06-22T10:18:18;101557.78;;;31.41;31.09
46682;BME280;34101;53.430;-2.224;2023-06-22T10:20:48;101554.06;;;32.71;29.37
46682;BME280;34101;53.430;-2.224;2023-06-22T10:23:16;101552.75;;;32.96;27.56
46682;BME280;34101;53.430;-2.224;2023-06-22T10:25:44;101551.08;;;32.80;28.49
46682;BME280;34101;53.430;-2.224;2023-06-22T10:28:11;101552.96;;;33.62;26.90
46682;BME280;34101;53.430;-2.224;2023-06-22T10:30:39;101556.35;;;32.88;27.53
46682;BME280;34101;53.430;-2.224;2023-06-22T10:33:06;101555.72;;;32.87;27.34
46682;BME280;34101;53.430;-2.224;2023-06-22T10:35:34;101563.92;;;31.90;30.06
46682;BME280;34101;53.430;-2.224;2023-06-22T10:38:01;101556.89;;;33.17;28.18
46682;BME280;34101;53.430;-2.224;2023-06-22T10:40:29;101560.45;;;31.97;29.67
46682;BME280;34101;53.430;-2.224;2023-06-22T10:42:56;101556.00;;;31.83;29.97
46682;BME280;34101;53.430;-2.224;2023-06-22T10:45:24;101549.59;;;33.07;27.91
46682;BME280;34101;53.430;-2.224;2023-06-22T10:47:51;101557.43;;;32.54;28.35
46682;BME280;34101;53.430;-2.224;2023-06-22T10:50:18;101557.40;;;32.14;28.24
46682;BME280;34101;53.430;-2.224;2023-06-22T10:52:46;101565.44;;;31.78;29.39
46682;BME280;34101;53.430;-2.224;2023-06-22T10:55:14;101567.56;;;31.37;30.12
46682;BME280;34101;53.430;-2.224;2023-06-22T10:57:41;101570.87;;;30.58;30.69
46682;BME280;34101;53.430;-2.224;2023-06-22T11:00:10;101568.44;;;30.27;30.89
46682;BME280;34101;53.430;-2.224;2023-06-22T11:02:37;101568.24;;;30.11;30.94
46682;BME280;34101;53.430;-2.224;2023-06-22T11:05:06;101565.25;;;31.02;29.88
46682;BME280;34101;53.430;-2.224;2023-06-22T11:07:34;101560.88;;;31.94;28.65
46682;BME280;34101;53.430;-2.224;2023-06-22T11:10:02;101556.78;;;32.65;27.03
46682;BME280;34101;53.430;-2.224;2023-06-22T11:12:30;101554.86;;;33.39;26.22
46682;BME280;34101;53.430;-2.224;2023-06-22T11:14:57;101559.41;;;31.75;28.84
46682;BME280;34101;53.430;-2.224;2023-06-22T11:17:25;101559.17;;;32.10;28.16
46682;BME280;34101;53.430;-2.224;2023-06-22T11:19:53;101558.62;;;32.68;27.98
46682;BME280;34101;53.430;-2.224;2023-06-22T11:22:21;101555.62;;;33.08;27.55
46682;BME280;34101;53.430;-2.224;2023-06-22T11:24:49;101562.40;;;33.60;26.98
46682;BME280;34101;53.430;-2.224;2023-06-22T11:27:16;101557.34;;;32.87;26.95
46682;BME280;34101;53.430;-2.224;2023-06-22T11:29:44;101562.32;;;32.41;28.27
46682;BME280;34101;53.430;-2.224;2023-06-22T11:32:11;101556.82;;;33.14;27.34
46682;BME280;34101;53.430;-2.224;2023-06-22T11:34:39;101549.67;;;33.45;25.53
46682;BME280;34101;53.430;-2.224;2023-06-22T11:37:06;101554.72;;;32.27;28.23
46682;BME280;34101;53.430;-2.224;2023-06-22T11:39:33;101556.60;;;31.54;29.46
46682;BME280;34101;53.430;-2.224;2023-06-22T11:42:01;101556.91;;;30.91;29.94
46682;BME280;34101;53.430;-2.224;2023-06-22T11:44:28;101554.37;;;31.95;28.31
46682;BME280;34101;53.430;-2.224;2023-06-22T11:46:56;101548.33;;;33.16;27.19
46682;BME280;34101;53.430;-2.224;2023-06-22T11:49:24;101535.53;;;33.89;25.59
46682;BME280;34101;53.430;-2.224;2023-06-22T11:51:51;101538.29;;;34.02;26.14
46682;BME280;34101;53.430;-2.224;2023-06-22T11:54:18;101532.41;;;33.09;26.01
46682;BME280;34101;53.430;-2.224;2023-06-22T11:56:46;101531.51;;;32.57;26.68
46682;BME280;34101;53.430;-2.224;2023-06-22T11:59:13;101532.07;;;32.36;27.60
46682;BME280;34101;53.430;-2.224;2023-06-22T12:01:41;101537.30;;;31.78;27.98
46682;BME280;34101;53.430;-2.224;2023-06-22T12:04:08;101536.28;;;31.48;28.08
46682;BME280;34101;53.430;-2.224;2023-06-22T12:06:37;101536.80;;;31.58;28.03
46682;BME280;34101;53.430;-2.224;2023-06-22T12:09:05;101530.35;;;31.95;27.22
46682;BME280;34101;53.430;-2.224;2023-06-22T12:11:33;101527.27;;;32.57;26.80
46682;BME280;34101;53.430;-2.224;2023-06-22T12:14:01;101530.35;;;31.45;27.41
46682;BME280;34101;53.430;-2.224;2023-06-22T12:16:28;101525.25;;;32.11;26.20
46682;BME280;34101;53.430;-2.224;2023-06-22T12:18:56;101523.18;;;32.16;27.16
46682;BME280;34101;53.430;-2.224;2023-06-22T12:21:24;101527.46;;;30.85;28.66
46682;BME280;34101;53.430;-2.224;2023-06-22T12:23:52;101522.83;;;31.02;29.01
46682;BME280;34101;53.430;-2.224;2023-06-22T12:26:19;101523.65;;;29.90;30.96
46682;BME280;34101;53.430;-2.224;2023-06-22T12:28:47;101520.66;;;30.40;30.01
46682;BME280;34101;53.430;-2.224;2023-06-22T12:31:15;101523.72;;;30.58;29.85
46682;BME280;34101;53.430;-2.224;2023-06-22T12:33:42;101525.70;;;30.63;30.85
46682;BME280;34101;53.430;-2.224;2023-06-22T12:36:10;101523.33;;;31.04;29.72
46682;BME280;34101;53.430;-2.224;2023-06-22T12:38:37;101524.03;;;31.48;29.03
46682;BME280;34101;53.430;-2.224;2023-06-22T12:41:05;101525.29;;;31.79;30.30
46682;BME280;34101;53.430;-2.224;2023-06-22T12:43:32;101527.37;;;31.75;28.01
46682;BME280;34101;53.430;-2.224;2023-06-22T12:46:00;101525.05;;;31.55;28.69